createdAt,value
2019-04-06T00:00:29.202Z,22.62
2019-04-06T00:01:29.175Z,22.68
2019-04-06T00:02:29.167Z,22.75
2019-04-06T00:03:29.152Z,22.69
2019-04-06T00:04:29.145Z,22.62
2019-04-06T00:05:29.224Z,22.69
2019-04-06T00:06:29.130Z,22.69
2019-04-06T00:07:29.116Z,22.69
2019-04-06T00:08:29.103Z,22.66
2019-04-06T00:09:29.112Z,22.75
2019-04-06T00:10:29.072Z,22.60
2019-04-06T00:11:29.091Z,22.62
2019-04-06T00:12:29.051Z,22.72
2019-04-06T00:13:29.040Z,22.72
2019-04-06T00:14:29.049Z,22.72
2019-04-06T00:15:29.023Z,22.68
2019-04-06T00:16:29.018Z,22.69
2019-04-06T00:17:29.001Z,22.69
2019-04-06T00:18:28.986Z,22.69
2019-04-06T00:19:28.979Z,22.59
2019-04-06T00:20:28.971Z,22.69
2019-04-06T00:21:28.972Z,22.63
2019-04-06T00:22:28.943Z,22.70
2019-04-06T00:23:28.934Z,22.66
2019-04-06T00:24:28.934Z,22.65
2019-04-06T00:25:28.910Z,22.72
2019-04-06T00:26:28.925Z,22.73
2019-04-06T00:27:28.908Z,22.69
2019-04-06T00:28:28.896Z,22.62
2019-04-06T00:29:28.874Z,22.68
2019-04-06T00:30:28.865Z,22.60
2019-04-06T00:31:28.913Z,22.72
2019-04-06T00:32:28.827Z,22.66
2019-04-06T00:33:28.833Z,22.69
2019-04-06T00:34:28.822Z,22.73
2019-04-06T00:35:28.799Z,22.69
2019-04-06T00:36:28.804Z,22.69
2019-04-06T00:37:28.786Z,22.68
2019-04-06T00:38:28.767Z,22.66
2019-04-06T00:39:28.762Z,22.70
2019-04-06T00:40:28.755Z,22.70
2019-04-06T00:41:28.742Z,22.72
2019-04-06T00:42:28.725Z,22.66
2019-04-06T00:43:28.707Z,22.68
2019-04-06T00:44:28.707Z,22.66
2019-04-06T00:45:28.692Z,22.66
2019-04-06T00:46:28.687Z,22.62
2019-04-06T00:47:28.687Z,22.68
2019-04-06T00:48:28.655Z,22.72
2019-04-06T00:49:28.646Z,22.57
2019-04-06T00:50:28.637Z,22.70
2019-04-06T00:51:28.635Z,22.55
2019-04-06T00:52:28.631Z,22.66
2019-04-06T00:53:28.635Z,22.62
2019-04-06T00:54:28.639Z,22.66
2019-04-06T00:55:28.589Z,22.66
2019-04-06T00:56:28.599Z,22.63
2019-04-06T00:57:28.580Z,22.66
2019-04-06T00:58:28.547Z,22.66
2019-04-06T00:59:28.539Z,22.70
2019-04-06T01:00:28.610Z,22.57
2019-04-06T01:01:28.518Z,22.66
2019-04-06T01:02:28.561Z,22.69
2019-04-06T01:03:28.488Z,22.57
2019-04-06T01:04:28.506Z,22.63
2019-04-06T01:05:28.485Z,22.62
2019-04-06T01:06:28.467Z,22.62
2019-04-06T01:07:28.463Z,22.60
2019-04-06T01:08:28.448Z,22.60
2019-04-06T01:09:28.485Z,22.70
2019-04-06T01:10:28.418Z,22.65
2019-04-06T01:11:28.411Z,22.66
2019-04-06T01:12:28.421Z,22.59
2019-04-06T01:13:28.494Z,22.66
2019-04-06T01:14:28.366Z,22.62
2019-04-06T01:15:28.368Z,22.55
2019-04-06T01:16:28.346Z,22.63
2019-04-06T01:17:28.358Z,22.60
2019-04-06T01:18:28.332Z,22.62
2019-04-06T01:19:28.322Z,22.63
2019-04-06T01:20:28.302Z,22.62
2019-04-06T01:21:28.304Z,22.53
2019-04-06T01:22:28.303Z,22.66
2019-04-06T01:23:28.286Z,22.60
2019-04-06T01:24:28.257Z,22.55
2019-04-06T01:25:28.261Z,22.63
2019-04-06T01:26:28.237Z,22.60
2019-04-06T01:27:28.330Z,22.55
2019-04-06T01:28:28.219Z,22.63
2019-04-06T01:29:28.256Z,22.59
2019-04-06T01:30:28.199Z,22.62
2019-04-06T01:31:28.195Z,22.66
2019-04-06T01:32:28.207Z,22.60
2019-04-06T01:33:28.165Z,22.66
2019-04-06T01:34:28.155Z,22.50
2019-04-06T01:35:28.144Z,22.62
2019-04-06T01:36:28.138Z,22.51
2019-04-06T01:37:28.143Z,22.48
2019-04-06T01:38:28.125Z,22.62
2019-04-06T01:39:28.399Z,22.60
2019-04-06T01:40:28.082Z,22.62
2019-04-06T01:41:28.072Z,22.55
2019-04-06T01:42:28.076Z,22.57
2019-04-06T01:43:28.054Z,22.55
2019-04-06T01:44:28.042Z,22.53
2019-04-06T01:45:28.050Z,22.60
2019-04-06T01:46:28.029Z,22.60
2019-04-06T01:47:28.016Z,22.54
2019-04-06T01:48:28.003Z,22.63
2019-04-06T01:49:27.993Z,22.57
2019-04-06T01:50:28.001Z,22.66
2019-04-06T01:51:27.971Z,22.60
2019-04-06T01:52:27.954Z,22.54
2019-04-06T01:53:27.945Z,22.63
2019-04-06T01:54:27.928Z,22.53
2019-04-06T01:55:27.937Z,22.51
2019-04-06T01:56:27.918Z,22.63
2019-04-06T01:57:27.900Z,22.57
2019-04-06T01:58:27.920Z,22.59
2019-04-06T01:59:27.874Z,22.44
2019-04-06T02:00:27.864Z,22.57
2019-04-06T02:01:27.869Z,22.59
2019-04-06T02:02:27.838Z,22.60
2019-04-06T02:03:27.839Z,22.57
2019-04-06T02:04:27.826Z,22.57
2019-04-06T02:05:27.845Z,22.57
2019-04-06T02:06:27.811Z,22.51
2019-04-06T02:07:27.797Z,22.59
2019-04-06T02:08:27.786Z,22.53
2019-04-06T02:09:27.935Z,22.50
2019-04-06T02:10:27.775Z,22.54
2019-04-06T02:11:27.745Z,22.59
2019-04-06T02:12:27.729Z,22.59
2019-04-06T02:13:27.738Z,22.48
2019-04-06T02:14:27.709Z,22.55
2019-04-06T02:15:27.699Z,22.59
2019-04-06T02:16:27.730Z,22.59
2019-04-06T02:17:27.696Z,22.45
2019-04-06T02:18:27.681Z,22.54
2019-04-06T02:19:27.673Z,22.54
2019-04-06T02:20:27.647Z,22.47
2019-04-06T02:21:27.633Z,22.54
2019-04-06T02:22:27.674Z,22.48
2019-04-06T02:23:27.614Z,22.50
2019-04-06T02:24:27.626Z,22.59
2019-04-06T02:25:27.592Z,22.60
2019-04-06T02:26:30.774Z,22.54
2019-04-06T02:27:27.562Z,22.45
2019-04-06T02:28:27.555Z,22.51
2019-04-06T02:29:27.991Z,22.59
2019-04-06T02:30:27.679Z,22.57
2019-04-06T02:31:27.569Z,22.54
2019-04-06T02:32:27.514Z,22.60
2019-04-06T02:33:27.497Z,22.60
2019-04-06T02:34:27.552Z,22.50
2019-04-06T02:35:27.529Z,22.57
2019-04-06T02:36:27.470Z,22.57
2019-04-06T02:37:27.471Z,22.53
2019-04-06T02:38:27.444Z,22.55
2019-04-06T02:39:27.446Z,22.57
2019-04-06T02:40:27.431Z,22.57
2019-04-06T02:41:27.574Z,22.59
2019-04-06T02:42:27.405Z,22.55
2019-04-06T02:43:27.403Z,22.47
2019-04-06T02:44:27.395Z,22.59
2019-04-06T02:45:27.384Z,22.55
2019-04-06T02:46:30.296Z,22.60
2019-04-06T02:47:27.447Z,22.57
2019-04-06T02:48:27.331Z,22.57
2019-04-06T02:49:27.340Z,22.57
2019-04-06T02:50:27.313Z,22.55
2019-04-06T02:51:27.317Z,22.53
2019-04-06T02:52:27.291Z,22.63
2019-04-06T02:53:27.298Z,22.55
2019-04-06T02:54:27.283Z,22.51
2019-04-06T02:55:27.263Z,22.60
2019-04-06T02:56:27.261Z,22.54
2019-04-06T02:57:27.256Z,22.59
2019-04-06T02:58:27.270Z,22.55
2019-04-06T02:59:27.229Z,22.54
2019-04-06T03:00:27.196Z,22.55
2019-04-06T03:01:27.456Z,22.54
2019-04-06T03:02:27.183Z,22.59
2019-04-06T03:03:27.186Z,22.57
2019-04-06T03:04:27.192Z,22.55
2019-04-06T03:05:27.317Z,22.54
2019-04-06T03:06:27.151Z,22.53
2019-04-06T03:07:27.135Z,22.54
2019-04-06T03:08:27.121Z,22.59
2019-04-06T03:09:27.124Z,22.55
2019-04-06T03:10:27.101Z,22.53
2019-04-06T03:11:27.107Z,22.53
2019-04-06T03:12:27.079Z,22.59
2019-04-06T03:13:27.065Z,22.53
2019-04-06T03:14:27.067Z,22.54
2019-04-06T03:15:27.068Z,22.55
2019-04-06T03:16:27.032Z,22.55
2019-04-06T03:17:27.021Z,22.54
2019-04-06T03:18:27.011Z,22.54
2019-04-06T03:19:27.282Z,22.60
2019-04-06T03:20:26.992Z,22.55
2019-04-06T03:21:26.967Z,22.63
2019-04-06T03:22:26.973Z,22.55
2019-04-06T03:23:27.146Z,22.57
2019-04-06T03:24:26.958Z,22.54
2019-04-06T03:25:26.944Z,22.59
2019-04-06T03:26:26.916Z,22.54
2019-04-06T03:27:26.910Z,22.59
2019-04-06T03:28:26.916Z,22.59
2019-04-06T03:29:26.890Z,22.55
2019-04-06T03:30:26.946Z,22.54
2019-04-06T03:31:27.857Z,22.55
2019-04-06T03:32:26.915Z,22.59
2019-04-06T03:33:26.838Z,22.55
2019-04-06T03:34:27.104Z,22.57
2019-04-06T03:35:26.841Z,22.57
2019-04-06T03:36:26.808Z,22.59
2019-04-06T03:37:26.791Z,22.60
2019-04-06T03:38:26.781Z,22.60
2019-04-06T03:39:26.832Z,22.57
2019-04-06T03:40:26.801Z,22.55
2019-04-06T03:41:26.754Z,22.57
2019-04-06T03:42:26.746Z,22.55
2019-04-06T03:43:26.731Z,22.55
2019-04-06T03:44:26.716Z,22.50
2019-04-06T03:45:26.722Z,22.57
2019-04-06T03:46:26.943Z,22.57
2019-04-06T03:47:26.678Z,22.51
2019-04-06T03:48:26.742Z,22.57
2019-04-06T03:49:26.660Z,22.59
2019-04-06T03:50:26.664Z,22.60
2019-04-06T03:51:26.638Z,22.48
2019-04-06T03:52:26.672Z,22.50
2019-04-06T03:53:26.610Z,22.59
2019-04-06T03:54:26.630Z,22.51
2019-04-06T03:55:26.601Z,22.57
2019-04-06T03:56:26.751Z,22.54
2019-04-06T03:57:26.588Z,22.51
2019-04-06T03:58:26.561Z,22.55
2019-04-06T03:59:26.550Z,22.57
2019-04-06T04:00:26.546Z,22.55
2019-04-06T04:01:26.533Z,22.55
2019-04-06T04:02:26.520Z,22.57
2019-04-06T04:03:26.504Z,22.59
2019-04-06T04:04:26.499Z,22.48
2019-04-06T04:05:26.482Z,22.57
2019-04-06T04:06:26.475Z,22.55
2019-04-06T04:07:26.469Z,22.51
2019-04-06T04:08:26.461Z,22.51
2019-04-06T04:09:26.444Z,22.55
2019-04-06T04:10:26.689Z,22.57
2019-04-06T04:11:26.424Z,22.47
2019-04-06T04:12:26.406Z,22.51
2019-04-06T04:13:26.516Z,22.60
2019-04-06T04:14:26.385Z,22.55
2019-04-06T04:15:26.377Z,22.51
2019-04-06T04:16:26.390Z,22.48
2019-04-06T04:17:26.355Z,22.54
2019-04-06T04:18:26.345Z,22.59
2019-04-06T04:19:26.360Z,22.57
2019-04-06T04:20:26.457Z,22.59
2019-04-06T04:21:26.326Z,22.48
2019-04-06T04:22:26.308Z,22.48
2019-04-06T04:23:26.339Z,22.51
2019-04-06T04:24:26.277Z,22.53
2019-04-06T04:25:26.260Z,22.48
2019-04-06T04:26:26.492Z,22.57
2019-04-06T04:27:29.337Z,22.57
2019-04-06T04:28:26.248Z,22.50
2019-04-06T04:29:26.223Z,22.51
2019-04-06T04:30:32.964Z,22.48
2019-04-06T04:31:27.371Z,22.57
2019-04-06T04:32:26.223Z,22.50
2019-04-06T04:33:26.358Z,22.48
2019-04-06T04:34:26.171Z,22.50
2019-04-06T04:35:26.175Z,22.50
2019-04-06T04:36:26.138Z,22.50
2019-04-06T04:37:26.287Z,22.51
2019-04-06T04:38:26.120Z,22.50
2019-04-06T04:39:26.118Z,22.55
2019-04-06T04:40:26.092Z,22.51
2019-04-06T04:41:26.088Z,22.51
2019-04-06T04:42:26.085Z,22.54
2019-04-06T04:43:26.054Z,22.55
2019-04-06T04:44:26.147Z,22.50
2019-04-06T04:45:26.049Z,22.54
2019-04-06T04:46:26.264Z,22.57
2019-04-06T04:47:26.028Z,22.45
2019-04-06T04:48:26.001Z,22.48
2019-04-06T04:49:26.016Z,22.48
2019-04-06T04:50:26.038Z,22.55
2019-04-06T04:51:25.973Z,22.53
2019-04-06T04:52:25.973Z,22.53
2019-04-06T04:53:26.148Z,22.55
2019-04-06T04:54:26.086Z,22.59
2019-04-06T04:55:25.931Z,22.59
2019-04-06T04:56:25.923Z,22.53
2019-04-06T04:57:26.001Z,22.51
2019-04-06T04:58:25.892Z,22.51
2019-04-06T04:59:25.886Z,22.50
2019-04-06T05:00:25.883Z,22.45
2019-04-06T05:01:25.971Z,22.48
2019-04-06T05:02:25.938Z,22.47
2019-04-06T05:03:25.832Z,22.55
2019-04-06T05:04:25.852Z,22.50
2019-04-06T05:05:25.819Z,22.50
2019-04-06T05:06:25.819Z,22.47
2019-04-06T05:07:25.804Z,22.55
2019-04-06T05:08:25.926Z,22.48
2019-04-06T05:09:25.864Z,22.51
2019-04-06T05:10:25.756Z,22.51
2019-04-06T05:11:25.751Z,22.53
2019-04-06T05:12:25.751Z,22.44
2019-04-06T05:13:25.744Z,22.53
2019-04-06T05:14:25.774Z,22.57
2019-04-06T05:15:25.709Z,22.41
2019-04-06T05:16:25.690Z,22.44
2019-04-06T05:17:25.713Z,22.48
2019-04-06T05:18:25.848Z,22.47
2019-04-06T05:19:25.770Z,22.50
2019-04-06T05:20:25.754Z,22.53
2019-04-06T05:21:25.629Z,22.55
2019-04-06T05:22:25.884Z,22.48
2019-04-06T05:23:25.631Z,22.50
2019-04-06T05:24:25.636Z,22.54
2019-04-06T05:25:25.592Z,22.55
2019-04-06T05:26:36.589Z,22.55
2019-04-06T05:27:26.562Z,22.55
2019-04-06T05:28:25.705Z,22.53
2019-04-06T05:29:25.750Z,22.43
2019-04-06T05:30:25.556Z,22.48
2019-04-06T05:31:25.528Z,22.57
2019-04-06T05:32:25.514Z,22.54
2019-04-06T05:33:25.521Z,22.57
2019-04-06T05:34:25.731Z,22.54
2019-04-06T05:35:25.489Z,22.50
2019-04-06T05:36:25.532Z,22.59
2019-04-06T05:37:25.471Z,22.54
2019-04-06T05:38:25.447Z,22.57
2019-04-06T05:39:25.436Z,22.55
2019-04-06T05:40:25.453Z,22.54
2019-04-06T05:41:25.425Z,22.54
2019-04-06T05:42:25.411Z,22.48
2019-04-06T05:43:25.442Z,22.55
2019-04-06T05:44:25.379Z,22.55
2019-04-06T05:45:25.395Z,22.48
2019-04-06T05:46:25.521Z,22.51
2019-04-06T05:47:25.347Z,22.54
2019-04-06T05:48:25.371Z,22.48
2019-04-06T05:49:25.327Z,22.57
2019-04-06T05:50:25.308Z,22.57
2019-04-06T05:51:25.322Z,22.51
2019-04-06T05:52:25.323Z,22.55
2019-04-06T05:53:25.299Z,22.59
2019-04-06T05:54:25.394Z,22.51
2019-04-06T05:55:25.297Z,22.57
2019-04-06T05:56:25.253Z,22.57
2019-04-06T05:57:25.239Z,22.51
2019-04-06T05:58:25.250Z,22.57
2019-04-06T05:59:25.218Z,22.51
2019-04-06T06:00:25.213Z,22.57
2019-04-06T06:01:25.301Z,22.55
2019-04-06T06:02:25.188Z,22.53
2019-04-06T06:03:25.187Z,22.57
2019-04-06T06:04:25.180Z,22.55
2019-04-06T06:05:25.146Z,22.57
2019-04-06T06:06:25.205Z,22.50
2019-04-06T06:07:25.149Z,22.55
2019-04-06T06:08:25.152Z,22.53
2019-04-06T06:09:25.106Z,22.51
2019-04-06T06:10:25.092Z,22.59
2019-04-06T06:11:25.130Z,22.60
2019-04-06T06:12:25.071Z,22.60
2019-04-06T06:13:25.080Z,22.57
2019-04-06T06:14:25.050Z,22.48
2019-04-06T06:15:25.035Z,22.51
2019-04-06T06:16:25.040Z,22.57
2019-04-06T06:17:25.008Z,22.54
2019-04-06T06:18:27.300Z,22.54
2019-04-06T06:19:24.993Z,22.54
2019-04-06T06:20:24.984Z,22.51
2019-04-06T06:21:24.994Z,22.57
2019-04-06T06:22:24.954Z,22.59
2019-04-06T06:23:24.954Z,22.57
2019-04-06T06:24:24.953Z,22.59
2019-04-06T06:25:24.930Z,22.57
2019-04-06T06:26:24.918Z,22.57
2019-04-06T06:27:24.908Z,22.50
2019-04-06T06:28:24.897Z,22.53
2019-04-06T06:29:24.931Z,22.60
2019-04-06T06:30:24.875Z,22.55
2019-04-06T06:31:24.858Z,22.54
2019-04-06T06:32:24.859Z,22.53
2019-04-06T06:33:24.851Z,22.55
2019-04-06T06:34:24.909Z,22.55
2019-04-06T06:35:24.831Z,22.57
2019-04-06T06:36:24.797Z,22.59
2019-04-06T06:37:24.802Z,22.54
2019-04-06T06:38:24.982Z,22.57
2019-04-06T06:39:24.904Z,22.54
2019-04-06T06:40:24.810Z,22.60
2019-04-06T06:41:24.753Z,22.54
2019-04-06T06:42:24.890Z,22.53
2019-04-06T06:43:24.730Z,22.51
2019-04-06T06:44:24.725Z,22.55
2019-04-06T06:45:24.733Z,22.48
2019-04-06T06:46:24.690Z,22.55
2019-04-06T06:47:24.680Z,22.59
2019-04-06T06:48:24.666Z,22.60
2019-04-06T06:49:24.658Z,22.53
2019-04-06T06:50:24.653Z,22.45
2019-04-06T06:51:24.632Z,22.57
2019-04-06T06:52:24.714Z,22.55
2019-04-06T06:53:24.609Z,22.63
2019-04-06T06:54:24.610Z,22.55
2019-04-06T06:55:26.612Z,22.54
2019-04-06T06:56:24.578Z,22.60
2019-04-06T06:57:24.570Z,22.50
2019-04-06T06:58:26.163Z,22.59
2019-04-06T06:59:24.562Z,22.51
2019-04-06T07:00:24.539Z,22.57
2019-04-06T07:01:24.539Z,22.53
2019-04-06T07:02:24.509Z,22.62
2019-04-06T07:03:24.501Z,22.48
2019-04-06T07:04:24.520Z,22.59
2019-04-06T07:05:24.548Z,22.68
2019-04-06T07:06:24.479Z,22.55
2019-04-06T07:07:24.472Z,22.60
2019-04-06T07:08:24.442Z,22.69
2019-04-06T07:09:24.446Z,22.59
2019-04-06T07:10:24.424Z,22.63
2019-04-06T07:11:24.425Z,22.59
2019-04-06T07:12:24.625Z,22.59
2019-04-06T07:13:24.386Z,22.48
2019-04-06T07:14:24.379Z,22.57
2019-04-06T07:15:24.387Z,22.54
2019-04-06T07:16:24.576Z,22.55
2019-04-06T07:17:24.403Z,22.57
2019-04-06T07:18:24.325Z,22.62
2019-04-06T07:19:24.323Z,22.63
2019-04-06T07:20:24.324Z,22.63
2019-04-06T07:21:24.434Z,22.62
2019-04-06T07:22:24.339Z,22.60
2019-04-06T07:23:24.333Z,22.51
2019-04-06T07:24:24.280Z,22.65
2019-04-06T07:25:24.269Z,22.60
2019-04-06T07:26:24.634Z,22.62
2019-04-06T07:27:24.236Z,22.65
2019-04-06T07:28:31.720Z,22.62
2019-04-06T07:29:25.200Z,22.60
2019-04-06T07:30:24.201Z,22.66
2019-04-06T07:31:24.203Z,22.59
2019-04-06T07:32:24.177Z,22.66
2019-04-06T07:33:24.158Z,22.63
2019-04-06T07:34:24.164Z,22.69
2019-04-06T07:35:24.187Z,22.57
2019-04-06T07:36:24.338Z,22.69
2019-04-06T07:37:24.249Z,22.60
2019-04-06T07:38:24.106Z,22.60
2019-04-06T07:39:24.094Z,22.66
2019-04-06T07:40:24.261Z,22.72
2019-04-06T07:41:24.078Z,22.66
2019-04-06T07:42:24.069Z,22.68
2019-04-06T07:43:24.045Z,22.62
2019-04-06T07:44:24.043Z,22.60
2019-04-06T07:45:24.104Z,22.66
2019-04-06T07:46:24.018Z,22.68
2019-04-06T07:47:24.007Z,22.68
2019-04-06T07:48:23.991Z,22.65
2019-04-06T07:49:24.029Z,22.60
2019-04-06T07:50:24.186Z,22.59
2019-04-06T07:51:23.975Z,22.66
2019-04-06T07:52:23.950Z,22.66
2019-04-06T07:53:23.974Z,22.66
2019-04-06T07:54:23.928Z,22.66
2019-04-06T07:55:23.938Z,22.57
2019-04-06T07:56:23.909Z,22.68
2019-04-06T07:57:23.890Z,22.66
2019-04-06T07:58:23.894Z,22.68
2019-04-06T07:59:23.865Z,22.70
2019-04-06T08:00:23.865Z,22.63
2019-04-06T08:01:23.853Z,22.70
2019-04-06T08:02:24.122Z,22.68
2019-04-06T08:03:23.822Z,22.68
2019-04-06T08:04:23.812Z,22.73
2019-04-06T08:05:24.406Z,22.70
2019-04-06T08:06:23.787Z,22.65
2019-04-06T08:07:23.783Z,22.70
2019-04-06T08:08:23.784Z,22.68
2019-04-06T08:09:23.755Z,22.72
2019-04-06T08:10:23.831Z,22.66
2019-04-06T08:11:23.731Z,22.73
2019-04-06T08:12:23.725Z,22.72
2019-04-06T08:13:23.724Z,22.69
2019-04-06T08:14:23.711Z,22.70
2019-04-06T08:15:23.687Z,22.70
2019-04-06T08:16:23.801Z,22.69
2019-04-06T08:17:23.680Z,22.69
2019-04-06T08:18:23.759Z,22.69
2019-04-06T08:19:23.653Z,22.68
2019-04-06T08:20:23.629Z,22.70
2019-04-06T08:21:23.627Z,22.60
2019-04-06T08:22:23.612Z,22.69
2019-04-06T08:23:23.617Z,22.66
2019-04-06T08:24:23.710Z,22.73
2019-04-06T08:25:23.584Z,22.75
2019-04-06T08:26:23.799Z,22.68
2019-04-06T08:27:23.556Z,22.68
2019-04-06T08:28:23.790Z,22.63
2019-04-06T08:29:23.554Z,22.68
2019-04-06T08:30:23.529Z,22.70
2019-04-06T08:31:23.534Z,22.72
2019-04-06T08:32:23.503Z,22.72
2019-04-06T08:33:23.522Z,22.70
2019-04-06T08:34:23.705Z,22.76
2019-04-06T08:35:25.951Z,22.70
2019-04-06T08:36:23.471Z,22.75
2019-04-06T08:37:23.443Z,22.65
2019-04-06T08:38:23.456Z,22.73
2019-04-06T08:39:25.402Z,22.70
2019-04-06T08:40:23.431Z,22.69
2019-04-06T08:41:23.425Z,22.65
2019-04-06T08:42:23.391Z,22.72
2019-04-06T08:43:23.399Z,22.70
2019-04-06T08:44:23.371Z,22.70
2019-04-06T08:45:23.352Z,22.76
2019-04-06T08:46:23.355Z,22.73
2019-04-06T08:47:23.350Z,22.75
2019-04-06T08:48:23.591Z,22.73
2019-04-06T08:49:23.319Z,22.69
2019-04-06T08:50:23.307Z,22.75
2019-04-06T08:51:23.299Z,22.69
2019-04-06T08:52:23.298Z,22.80
2019-04-06T08:53:23.301Z,22.73
2019-04-06T08:54:23.259Z,22.73
2019-04-06T08:55:23.327Z,22.72
2019-04-06T08:56:23.286Z,22.75
2019-04-06T08:57:23.589Z,22.76
2019-04-06T08:58:23.483Z,22.75
2019-04-06T08:59:23.210Z,22.75
2019-04-06T09:00:23.301Z,22.68
2019-04-06T09:01:23.223Z,22.80
2019-04-06T09:02:23.290Z,22.70
2019-04-06T09:03:23.226Z,22.70
2019-04-06T09:04:23.307Z,22.72
2019-04-06T09:05:23.151Z,22.73
2019-04-06T09:06:23.124Z,22.73
2019-04-06T09:07:23.107Z,22.69
2019-04-06T09:08:23.100Z,22.70
2019-04-06T09:09:23.143Z,22.69
2019-04-06T09:10:23.075Z,22.75
2019-04-06T09:11:23.066Z,22.68
2019-04-06T09:12:23.046Z,22.75
2019-04-06T09:13:23.041Z,22.75
2019-04-06T09:14:23.237Z,22.72
2019-04-06T09:15:23.016Z,22.78
2019-04-06T09:16:23.282Z,22.70
2019-04-06T09:17:23.129Z,22.66
2019-04-06T09:18:22.984Z,22.70
2019-04-06T09:19:22.968Z,22.69
2019-04-06T09:20:22.994Z,22.73
2019-04-06T09:21:23.055Z,22.73
2019-04-06T09:22:22.938Z,22.72
2019-04-06T09:23:22.924Z,22.65
2019-04-06T09:24:22.940Z,22.75
2019-04-06T09:25:22.909Z,22.69
2019-04-06T09:26:22.948Z,22.72
2019-04-06T09:27:23.016Z,22.73
2019-04-06T09:28:23.097Z,22.70
2019-04-06T09:29:24.451Z,22.68
2019-04-06T09:30:23.118Z,22.72
2019-04-06T09:31:22.854Z,22.72
2019-04-06T09:32:22.908Z,22.72
2019-04-06T09:33:22.940Z,22.80
2019-04-06T09:34:22.822Z,22.72
2019-04-06T09:35:22.860Z,22.78
2019-04-06T09:36:22.823Z,22.73
2019-04-06T09:37:22.818Z,22.70
2019-04-06T09:38:22.775Z,22.70
2019-04-06T09:39:22.859Z,22.68
2019-04-06T09:40:22.741Z,22.78
2019-04-06T09:41:22.753Z,22.72
2019-04-06T09:42:23.063Z,22.84
2019-04-06T09:43:22.701Z,22.70
2019-04-06T09:44:22.853Z,22.73
2019-04-06T09:45:22.683Z,22.73
2019-04-06T09:46:22.719Z,22.73
2019-04-06T09:47:22.774Z,22.73
2019-04-06T09:48:22.648Z,22.70
2019-04-06T09:49:22.672Z,22.72
2019-04-06T09:50:22.633Z,22.85
2019-04-06T09:51:22.694Z,22.72
2019-04-06T09:52:22.613Z,22.73
2019-04-06T09:53:22.595Z,22.72
2019-04-06T09:54:22.668Z,22.70
2019-04-06T09:55:22.814Z,22.81
2019-04-06T09:56:22.557Z,22.70
2019-04-06T09:57:22.628Z,22.78
2019-04-06T09:58:22.600Z,22.80
2019-04-06T09:59:33.975Z,22.83
2019-04-06T10:00:23.508Z,22.83
2019-04-06T10:01:22.586Z,22.72
2019-04-06T10:02:22.490Z,22.83
2019-04-06T10:03:22.494Z,22.81
2019-04-06T10:04:22.476Z,22.83
2019-04-06T10:05:22.533Z,22.76
2019-04-06T10:06:22.484Z,22.76
2019-04-06T10:07:22.809Z,22.76
2019-04-06T10:08:22.434Z,22.83
2019-04-06T10:09:22.560Z,22.75
2019-04-06T10:10:22.582Z,22.72
2019-04-06T10:11:22.390Z,22.72
2019-04-06T10:12:22.394Z,22.70
2019-04-06T10:13:22.373Z,22.80
2019-04-06T10:14:22.431Z,22.81
2019-04-06T10:15:22.379Z,22.83
2019-04-06T10:16:22.379Z,22.80
2019-04-06T10:17:22.651Z,22.80
2019-04-06T10:18:22.369Z,22.80
2019-04-06T10:19:22.325Z,22.80
2019-04-06T10:20:22.295Z,22.80
2019-04-06T10:21:22.280Z,22.83
2019-04-06T10:22:22.291Z,22.81
2019-04-06T10:23:22.529Z,22.81
2019-04-06T10:24:22.247Z,22.76
2019-04-06T10:25:22.242Z,22.80
2019-04-06T10:26:22.235Z,22.78
2019-04-06T10:27:22.239Z,22.78
2019-04-06T10:28:22.216Z,22.78
2019-04-06T10:29:22.201Z,22.76
2019-04-06T10:30:22.293Z,22.78
2019-04-06T10:31:22.183Z,22.76
2019-04-06T10:32:22.214Z,22.75
2019-04-06T10:33:22.315Z,22.75
2019-04-06T10:34:22.147Z,22.76
2019-04-06T10:35:22.142Z,22.80
2019-04-06T10:36:22.336Z,22.76
2019-04-06T10:37:22.413Z,22.80
2019-04-06T10:38:22.093Z,22.78
2019-04-06T10:39:22.117Z,22.80
2019-04-06T10:40:22.207Z,22.80
2019-04-06T10:41:22.086Z,22.80
2019-04-06T10:42:22.061Z,22.80
2019-04-06T10:43:22.058Z,22.80
2019-04-06T10:44:22.032Z,22.85
2019-04-06T10:45:22.380Z,22.88
2019-04-06T10:46:22.022Z,22.83
2019-04-06T10:47:21.998Z,22.81
2019-04-06T10:48:22.469Z,22.78
2019-04-06T10:49:22.082Z,22.78
2019-04-06T10:50:21.956Z,22.80
2019-04-06T10:51:21.950Z,22.85
2019-04-06T10:52:21.939Z,22.81
2019-04-06T10:53:21.929Z,22.83
2019-04-06T10:54:21.916Z,22.90
2019-04-06T10:55:21.904Z,22.75
2019-04-06T10:56:22.089Z,22.87
2019-04-06T10:57:21.893Z,22.85
2019-04-06T10:58:22.176Z,22.78
2019-04-06T10:59:21.864Z,22.81
2019-04-06T11:00:22.043Z,22.88
2019-04-06T11:01:21.865Z,22.85
2019-04-06T11:02:21.834Z,22.72
2019-04-06T11:03:21.815Z,22.72
2019-04-06T11:04:21.860Z,22.90
2019-04-06T11:05:21.788Z,22.85
2019-04-06T11:06:21.780Z,22.81
2019-04-06T11:07:22.115Z,22.80
2019-04-06T11:08:21.758Z,22.90
2019-04-06T11:09:21.750Z,22.91
2019-04-06T11:10:21.741Z,22.91
2019-04-06T11:11:21.730Z,22.80
2019-04-06T11:12:21.713Z,22.81
2019-04-06T11:13:21.710Z,22.90
2019-04-06T11:14:21.721Z,22.88
2019-04-06T11:15:21.685Z,22.88
2019-04-06T11:16:21.722Z,22.76
2019-04-06T11:17:21.864Z,22.91
2019-04-06T11:18:21.640Z,22.78
2019-04-06T11:19:21.649Z,22.75
2019-04-06T11:20:21.659Z,22.93
2019-04-06T11:21:21.620Z,22.81
2019-04-06T11:22:21.591Z,22.87
2019-04-06T11:23:21.581Z,22.88
2019-04-06T11:24:21.625Z,22.78
2019-04-06T11:25:22.026Z,22.85
2019-04-06T11:26:21.556Z,22.90
2019-04-06T11:27:21.584Z,22.85
2019-04-06T11:28:21.531Z,22.93
2019-04-06T11:29:21.528Z,22.81
2019-04-06T11:30:21.520Z,22.90
2019-04-06T11:31:21.502Z,22.88
2019-04-06T11:32:21.488Z,22.81
2019-04-06T11:33:21.703Z,22.90
2019-04-06T11:34:22.275Z,22.78
2019-04-06T11:35:21.465Z,22.91
2019-04-06T11:36:21.453Z,22.83
2019-04-06T11:37:21.500Z,22.84
2019-04-06T11:38:21.419Z,22.81
2019-04-06T11:39:21.403Z,22.88
2019-04-06T11:40:21.416Z,22.91
2019-04-06T11:41:21.411Z,22.88
2019-04-06T11:42:21.384Z,22.85
2019-04-06T11:43:21.369Z,22.78
2019-04-06T11:44:21.368Z,22.81
2019-04-06T11:45:21.354Z,22.88
2019-04-06T11:46:21.331Z,22.87
2019-04-06T11:47:21.317Z,22.93
2019-04-06T11:48:21.307Z,22.84
2019-04-06T11:49:21.319Z,22.91
2019-04-06T11:50:21.469Z,22.91
2019-04-06T11:51:21.266Z,22.85
2019-04-06T11:52:21.262Z,22.76
2019-04-06T11:53:21.517Z,22.93
2019-04-06T11:54:21.280Z,22.91
2019-04-06T11:55:21.228Z,22.83
2019-04-06T11:56:21.225Z,22.78
2019-04-06T11:57:21.220Z,22.90
2019-04-06T11:58:21.195Z,22.88
2019-04-06T11:59:21.188Z,22.93
2019-04-06T12:00:26.385Z,22.87
2019-04-06T12:01:22.164Z,22.88
2019-04-06T12:02:21.146Z,22.84
2019-04-06T12:03:21.130Z,22.78
2019-04-06T12:04:21.125Z,22.84
2019-04-06T12:05:21.118Z,22.87
2019-04-06T12:06:21.102Z,22.78
2019-04-06T12:07:21.104Z,22.88
2019-04-06T12:08:21.082Z,22.84
2019-04-06T12:09:21.065Z,22.83
2019-04-06T12:10:21.261Z,22.88
2019-04-06T12:11:21.047Z,22.87
2019-04-06T12:12:21.044Z,22.87
2019-04-06T12:13:21.037Z,22.94
2019-04-06T12:14:21.020Z,22.85
2019-04-06T12:15:21.005Z,22.84
2019-04-06T12:16:21.326Z,22.88
2019-04-06T12:17:21.055Z,22.75
2019-04-06T12:18:20.972Z,22.84
2019-04-06T12:19:20.998Z,22.88
2019-04-06T12:20:20.955Z,22.91
2019-04-06T12:21:20.936Z,22.91
2019-04-06T12:22:20.921Z,22.90
2019-04-06T12:23:20.927Z,22.83
2019-04-06T12:24:20.906Z,22.87
2019-04-06T12:25:20.893Z,22.83
2019-04-06T12:26:20.922Z,22.78
2019-04-06T12:27:20.866Z,22.83
2019-04-06T12:28:21.867Z,22.87
2019-04-06T12:29:20.881Z,22.94
2019-04-06T12:30:20.880Z,22.96
2019-04-06T12:31:20.875Z,22.90
2019-04-06T12:32:20.812Z,22.84
2019-04-06T12:33:20.804Z,22.80
2019-04-06T12:34:20.795Z,22.84
2019-04-06T12:35:21.031Z,22.91
2019-04-06T12:36:20.769Z,22.87
2019-04-06T12:37:20.763Z,22.85
2019-04-06T12:38:20.743Z,22.90
2019-04-06T12:39:20.734Z,22.84
2019-04-06T12:40:20.722Z,22.93
2019-04-06T12:41:20.715Z,22.90
2019-04-06T12:42:20.719Z,22.83
2019-04-06T12:43:20.691Z,22.96
2019-04-06T12:44:20.898Z,22.91
2019-04-06T12:45:20.667Z,22.99
2019-04-06T12:46:20.700Z,22.90
2019-04-06T12:47:20.732Z,22.94
2019-04-06T12:48:20.628Z,22.91
2019-04-06T12:49:20.920Z,22.98
2019-04-06T12:50:20.745Z,22.88
2019-04-06T12:51:20.655Z,22.98
2019-04-06T12:52:20.604Z,22.96